KAZO

Kalamazoo/Battle Creek International Airport

Kalamazoo, Michigan, USA
METAR KAZO 172053Z 15005KT 6SM HZ CLR 01/M02 A3003 RMK AO2 SLP178 T00111022 56017
Observed Flight Rules
Dec-17 @ 20:53 UTC (37 minutes ago) Visual Flight Rules
Wind Visibility Clouds Conditions
150° at 5 knots 6 miles
  • Clear skies
  • Haze
Temperatures Readings
Current 1°C / 34°F
Dewpoint -2°C / 28°F
Humidity 81%
Altimeter 30.03" Hg
Pressure 1017.8 hPa
Elevation 272
METAR KAZO 172053Z 15005KT 6SM HZ CLR 01/M02 A3003 RMK AO2 SLP178 T00111022 56017
Observed Flight Rules
Dec-17 @ 20:53 UTC
(37 minutes ago)
VFR
Wind Visibility
150° at 5 knots 6 miles
Clouds
  • Clear skies
Conditions
  • Haze
Temperature Dewpoint
1°C / 34°F -2°C / 28°F
Humidity Altimeter Pressure
81% 30.03" Hg 1017.8 hPa